createdAt,value
2024-03-16T00:00:08.001Z,100344.91
2024-03-16T00:03:11.862Z,100340.50
2024-03-16T00:06:15.826Z,100346.59
2024-03-16T00:09:19.539Z,100343.66
2024-03-16T00:12:23.160Z,100344.03
2024-03-16T00:15:25.829Z,100340.09
2024-03-16T00:18:28.452Z,100334.31
2024-03-16T00:21:30.989Z,100334.88
2024-03-16T00:24:33.566Z,100328.34
2024-03-16T00:27:36.448Z,100338.97
2024-03-16T00:30:38.995Z,100334.78
2024-03-16T00:33:41.597Z,100339.97
2024-03-16T00:36:44.151Z,100336.59
2024-03-16T00:39:46.783Z,100336.59
2024-03-16T00:42:49.401Z,100335.09
2024-03-16T00:45:52.149Z,100335.94
2024-03-16T00:48:54.750Z,100330.88
2024-03-16T00:51:58.608Z,100332.72
2024-03-16T00:55:01.241Z,100323.97
2024-03-16T00:58:04.654Z,100322.94
2024-03-16T01:01:07.282Z,100325.81
2024-03-16T01:04:10.194Z,100324.53
2024-03-16T01:07:14.239Z,100323.84
2024-03-16T01:10:17.633Z,100322.34
2024-03-16T01:13:20.159Z,100321.63
2024-03-16T01:16:22.709Z,100325.84
2024-03-16T01:19:26.359Z,100321.25
2024-03-16T01:22:28.856Z,100324.53
2024-03-16T01:25:31.460Z,100316.38
2024-03-16T01:28:34.907Z,100307.91
2024-03-16T01:31:38.590Z,100313.69
2024-03-16T01:34:41.156Z,100308.78
2024-03-16T01:37:44.183Z,100309.22
2024-03-16T01:40:46.954Z,100306.75
2024-03-16T01:43:49.805Z,100314.28
2024-03-16T01:46:52.474Z,100309.72
2024-03-16T01:49:55.005Z,100311.41
2024-03-16T01:52:58.272Z,100316.38
2024-03-16T01:56:00.943Z,100301.38
2024-03-16T01:59:04.143Z,100308.47
2024-03-16T02:02:29.580Z,100309.47
2024-03-16T02:05:32.653Z,100316.75
2024-03-16T02:08:35.207Z,100318.06
2024-03-16T02:11:37.772Z,100308.41
2024-03-16T02:14:40.442Z,100299.94
2024-03-16T02:17:43.250Z,100305.25
2024-03-16T02:20:45.965Z,100313.53
2024-03-16T02:23:49.372Z,100309.66
2024-03-16T02:26:53.211Z,100315.16
2024-03-16T02:29:55.769Z,100318.53
2024-03-16T02:32:58.381Z,100314.47
2024-03-16T02:36:00.965Z,100312.63
2024-03-16T02:39:03.648Z,100320.56
2024-03-16T02:42:06.371Z,100321.94
2024-03-16T02:45:09.088Z,100327.19
2024-03-16T02:48:12.577Z,100318.38
2024-03-16T02:51:15.234Z,100314.50
2024-03-16T02:54:18.045Z,100321.78
2024-03-16T02:57:20.602Z,100320.56
2024-03-16T03:00:23.633Z,100318.72
2024-03-16T03:03:26.146Z,100323.50
2024-03-16T03:06:28.781Z,100322.72
2024-03-16T03:09:33.182Z,100321.88
2024-03-16T03:12:35.759Z,100331.53
2024-03-16T03:15:38.807Z,100331.53
2024-03-16T03:18:41.455Z,100325.31
2024-03-16T03:21:44.057Z,100320.56
2024-03-16T03:24:49.398Z,100324.22
2024-03-16T03:27:52.177Z,100329.09
2024-03-16T03:30:54.928Z,100333.00
2024-03-16T03:33:57.606Z,100337.09
2024-03-16T03:37:00.138Z,100330.91
2024-03-16T03:40:02.844Z,100322.97
2024-03-16T03:43:06.849Z,100315.44
2024-03-16T03:46:14.757Z,100332.88
2024-03-16T03:49:27.781Z,100336.19
2024-03-16T03:52:30.318Z,100344.19
2024-03-16T03:55:33.423Z,100341.50
2024-03-16T03:58:35.941Z,100345.41
2024-03-16T04:01:38.706Z,100347.81
2024-03-16T04:04:43.189Z,100340.66
2024-03-16T04:07:45.725Z,100333.06
2024-03-16T04:10:48.590Z,100332.47
2024-03-16T04:13:51.200Z,100338.28
2024-03-16T04:16:53.739Z,100342.06
2024-03-16T04:19:56.394Z,100339.97
2024-03-16T04:22:59.052Z,100344.47
2024-03-16T04:26:01.581Z,100329.75
2024-03-16T04:29:04.052Z,100344.59
2024-03-16T04:32:06.681Z,100333.69
2024-03-16T04:35:09.847Z,100341.75
2024-03-16T04:38:14.349Z,100338.38
2024-03-16T04:41:17.222Z,100334.59
2024-03-16T04:44:19.884Z,100338.28
2024-03-16T04:47:22.424Z,100344.38
2024-03-16T04:50:25.516Z,100339.25
2024-03-16T04:53:28.046Z,100339.47
2024-03-16T04:56:30.657Z,100337.56
2024-03-16T04:59:33.171Z,100332.13
2024-03-16T05:02:35.643Z,100335.97
2024-03-16T05:05:38.162Z,100327.28
2024-03-16T05:08:41.921Z,100337.00
2024-03-16T05:11:45.640Z,100331.47
2024-03-16T05:14:48.157Z,100329.56
2024-03-16T05:17:51.080Z,100334.53
2024-03-16T05:20:53.645Z,100331.59
2024-03-16T05:23:56.567Z,100325.69
2024-03-16T05:26:59.136Z,100335.34
2024-03-16T05:30:01.602Z,100340.53
2024-03-16T05:33:05.572Z,100345.19
2024-03-16T05:36:10.769Z,100340.97
2024-03-16T05:39:16.099Z,100348.41
2024-03-16T05:42:18.905Z,100341.72
2024-03-16T05:45:22.202Z,100342.72
2024-03-16T05:48:24.827Z,100339.41
2024-03-16T05:51:28.521Z,100344.59
2024-03-16T05:54:35.380Z,100335.66
2024-03-16T05:57:38.700Z,100355.03
2024-03-16T06:00:42.123Z,100355.44
2024-03-16T06:03:44.633Z,100360.56
2024-03-16T06:06:47.729Z,100344.53
2024-03-16T06:09:50.460Z,100343.41
2024-03-16T06:12:53.292Z,100344.97
2024-03-16T06:15:55.883Z,100343.00
2024-03-16T06:19:00.248Z,100348.22
2024-03-16T06:22:04.275Z,100359.63
2024-03-16T06:25:07.468Z,100365.81
2024-03-16T06:28:10.738Z,100374.69
2024-03-16T06:31:13.380Z,100376.06
2024-03-16T06:34:16.005Z,100365.81
2024-03-16T06:37:18.844Z,100365.91
2024-03-16T06:40:21.832Z,100368.03
2024-03-16T06:43:25.349Z,100387.41
2024-03-16T06:46:27.978Z,100389.41
2024-03-16T06:49:30.801Z,100397.22
2024-03-16T06:52:33.349Z,100403.16
2024-03-16T06:55:36.098Z,100390.47
2024-03-16T06:58:38.639Z,100405.69
2024-03-16T07:01:41.156Z,100409.41
2024-03-16T07:04:44.038Z,100410.94
2024-03-16T07:07:46.502Z,100414.25
2024-03-16T07:10:49.059Z,100417.50
2024-03-16T07:13:52.127Z,100423.22
2024-03-16T07:16:56.134Z,100430.41
2024-03-16T07:19:58.724Z,100433.44
2024-03-16T07:23:01.241Z,100432.84
2024-03-16T07:26:04.082Z,100433.25
2024-03-16T07:29:06.648Z,100436.81
2024-03-16T07:32:09.257Z,100435.78
2024-03-16T07:35:12.502Z,100444.69
2024-03-16T07:38:15.224Z,100446.97
2024-03-16T07:41:17.800Z,100438.97
2024-03-16T07:44:20.461Z,100439.81
2024-03-16T07:47:23.030Z,100438.22
2024-03-16T07:50:25.497Z,100440.63
2024-03-16T07:53:28.687Z,100439.44
2024-03-16T07:56:32.426Z,100437.16
2024-03-16T07:59:34.933Z,100444.53
2024-03-16T08:02:37.438Z,100447.84
2024-03-16T08:05:40.567Z,100456.41
2024-03-16T08:08:45.313Z,100450.50
2024-03-16T08:11:48.060Z,100453.81
2024-03-16T08:14:50.571Z,100451.78
2024-03-16T08:17:55.502Z,100446.06
2024-03-16T08:21:01.402Z,100451.44
2024-03-16T08:24:04.173Z,100440.94
2024-03-16T08:27:06.798Z,100441.94
2024-03-16T08:30:10.190Z,100445.44
2024-03-16T08:33:12.699Z,100451.03
2024-03-16T08:36:16.287Z,100449.06
2024-03-16T08:39:19.698Z,100450.13
2024-03-16T08:42:22.289Z,100449.69
2024-03-16T08:45:24.903Z,100445.75
2024-03-16T08:48:27.450Z,100448.00
2024-03-16T08:51:30.159Z,100446.66
2024-03-16T08:54:34.194Z,100438.69
2024-03-16T08:57:36.857Z,100444.97
2024-03-16T09:00:39.612Z,100442.06
2024-03-16T09:03:42.260Z,100444.56
2024-03-16T09:06:46.004Z,100441.34
2024-03-16T09:09:48.703Z,100446.00
2024-03-16T09:12:51.210Z,100442.78
2024-03-16T09:15:53.856Z,100441.56
2024-03-16T09:18:56.536Z,100440.22
2024-03-16T09:21:59.581Z,100447.44
2024-03-16T09:25:06.776Z,100441.81
2024-03-16T09:28:09.750Z,100448.50
2024-03-16T09:31:12.279Z,100449.66
2024-03-16T09:34:15.575Z,100446.56
2024-03-16T09:37:18.304Z,100443.47
2024-03-16T09:40:21.188Z,100452.06
